Ora Direzione Vento Velocita' Vento Media Vento Raffica Max. Temperatura Wind Chill Pioggia Pressione
22:33:57.00 °(N)1.75 Kts0.97 Kts13.8 Kts10.9 °C10.9 °C0.0 mm1026.5 Hpa
22:12:24.010 °(N)1.75 Kts0.97 Kts13.8 Kts11.6 °C11.6 °C0.0 mm1026.6 Hpa
21:52:45.025 °(NNE)2.72 Kts2.72 Kts13.8 Kts11.8 °C11.8 °C0.0 mm1026.5 Hpa
21:33:26.016 °(NNE)3.69 Kts2.72 Kts13.8 Kts12.0 °C12.0 °C0.0 mm1026.6 Hpa
21:11:56.028 °(NNE)4.67 Kts1.75 Kts13.8 Kts11.8 °C11.8 °C0.0 mm1026.6 Hpa
20:52:26.031 °(NNE)3.69 Kts1.75 Kts13.8 Kts11.8 °C11.8 °C0.0 mm1026.8 Hpa
20:32:58.0358 °(N)2.72 Kts1.75 Kts13.8 Kts11.6 °C11.6 °C0.0 mm1026.8 Hpa
20:13:40.0345 °(NNW)3.69 Kts1.75 Kts13.8 Kts11.6 °C11.6 °C0.0 mm1026.5 Hpa
19:53:53.028 °(NNE)2.72 Kts1.75 Kts13.8 Kts11.3 °C11.3 °C0.0 mm1026.6 Hpa
19:32:26.025 °(NNE)3.69 Kts2.72 Kts13.8 Kts11.4 °C11.3 °C0.0 mm1026.7 Hpa
19:12:56.013 °(NNE)1.75 Kts1.75 Kts13.8 Kts11.8 °C11.8 °C0.0 mm1026.6 Hpa
18:53:33.018 °(NNE)1.75 Kts1.75 Kts13.8 Kts12.1 °C12.1 °C0.0 mm1026.6 Hpa
18:31:59.017 °(NNE)0.97 Kts0.0 Kts13.8 Kts12.6 °C12.6 °C0.0 mm1026.7 Hpa
18:12:14.034 °(NE)1.75 Kts0.97 Kts13.8 Kts12.7 °C12.7 °C0.0 mm1026.6 Hpa
17:52:37.041 °(NE)1.75 Kts1.75 Kts13.8 Kts13.1 °C13.1 °C0.0 mm1026.5 Hpa
17:33:17.014 °(NNE)1.75 Kts0.97 Kts13.8 Kts13.2 °C13.2 °C0.0 mm1026.5 Hpa
17:11:48.048 °(NE)1.75 Kts0.97 Kts13.8 Kts13.8 °C13.8 °C0.0 mm1026.4 Hpa
16:52:11.042 °(NE)2.72 Kts0.97 Kts13.8 Kts14.1 °C14.1 °C0.0 mm1026.4 Hpa
16:32:40.0329 °(NNW)0.97 Kts0.97 Kts13.8 Kts14.7 °C14.7 °C0.0 mm1026.3 Hpa
16:12:58.0313 °(NW)1.75 Kts0.97 Kts13.8 Kts15.6 °C15.6 °C0.0 mm1026.3 Hpa